createdAt,value
2023-12-07T00:01:16.265Z,96219.20
2023-12-07T00:03:44.448Z,96221.00
2023-12-07T00:06:12.769Z,96225.40
2023-12-07T00:08:40.890Z,96223.40
2023-12-07T00:11:09.162Z,96223.00
2023-12-07T00:13:37.371Z,96219.20
2023-12-07T00:16:06.210Z,96218.60
2023-12-07T00:18:34.453Z,96222.20
2023-12-07T00:21:02.880Z,96226.40
2023-12-07T00:23:31.060Z,96223.20
2023-12-07T00:25:59.543Z,96219.00
2023-12-07T00:28:27.787Z,96223.80
2023-12-07T00:30:55.896Z,96223.40
2023-12-07T00:33:24.100Z,96224.40
2023-12-07T00:35:52.335Z,96227.40
2023-12-07T00:38:22.389Z,96235.20
2023-12-07T00:40:50.456Z,96235.00
2023-12-07T00:43:19.553Z,96238.00
2023-12-07T00:45:47.640Z,96238.60
2023-12-07T00:48:16.031Z,96241.80
2023-12-07T00:50:44.309Z,96244.20
2023-12-07T00:53:12.874Z,96244.80
2023-12-07T00:55:41.536Z,96246.80
2023-12-07T00:58:09.790Z,96242.40
2023-12-07T01:00:38.628Z,96238.00
2023-12-07T01:03:06.885Z,96239.40
2023-12-07T01:05:36.326Z,96241.00
2023-12-07T01:08:04.746Z,96234.60
2023-12-07T01:10:33.681Z,96235.40
2023-12-07T01:13:02.405Z,96229.40
2023-12-07T01:15:31.026Z,96231.60
2023-12-07T01:17:59.420Z,96225.80
2023-12-07T01:20:27.613Z,96225.20
2023-12-07T01:22:55.659Z,96230.00
2023-12-07T01:25:24.250Z,96223.40
2023-12-07T01:27:52.751Z,96227.20
2023-12-07T01:30:20.910Z,96224.00
2023-12-07T01:32:49.027Z,96222.60
2023-12-07T01:35:17.449Z,96221.60
2023-12-07T01:37:45.597Z,96219.40
2023-12-07T01:40:16.110Z,96219.40
2023-12-07T01:42:52.532Z,96223.60
2023-12-07T01:45:21.129Z,96217.60
2023-12-07T01:47:50.899Z,96221.20
2023-12-07T01:50:19.065Z,96219.20
2023-12-07T01:52:49.150Z,96222.00
2023-12-07T01:55:17.372Z,96214.00
2023-12-07T01:57:45.960Z,96219.80
2023-12-07T02:00:15.150Z,96221.40
2023-12-07T02:02:45.192Z,96218.40
2023-12-07T02:05:14.419Z,96218.20
2023-12-07T02:07:42.805Z,96216.20
2023-12-07T02:10:14.705Z,96213.60
2023-12-07T02:12:42.907Z,96211.40
2023-12-07T02:15:12.556Z,96209.20
2023-12-07T02:18:04.493Z,96211.60
2023-12-07T02:20:58.853Z,96214.60
2023-12-07T02:23:36.818Z,96216.40
2023-12-07T02:26:32.859Z,96218.00
2023-12-07T02:29:01.025Z,96215.00
2023-12-07T02:31:29.450Z,96223.20
2023-12-07T02:33:57.983Z,96224.60
2023-12-07T02:36:26.188Z,96216.40
2023-12-07T02:38:54.295Z,96224.60
2023-12-07T02:41:22.371Z,96220.80
2023-12-07T02:43:50.523Z,96230.00
2023-12-07T02:46:19.461Z,96234.00
2023-12-07T02:48:47.892Z,96230.80
2023-12-07T02:51:15.982Z,96233.40
2023-12-07T02:53:44.042Z,96238.80
2023-12-07T02:56:12.289Z,96234.40
2023-12-07T02:58:40.502Z,96235.60
2023-12-07T03:01:09.640Z,96234.40
2023-12-07T03:03:39.902Z,96235.60
2023-12-07T03:06:08.909Z,96234.80
2023-12-07T03:08:37.032Z,96236.60
2023-12-07T03:11:06.369Z,96231.80
2023-12-07T03:13:34.737Z,96234.60
2023-12-07T03:16:03.045Z,96233.00
2023-12-07T03:18:31.234Z,96234.80
2023-12-07T03:20:59.524Z,96237.40
2023-12-07T03:23:27.778Z,96239.20
2023-12-07T03:25:57.019Z,96235.60
2023-12-07T03:28:25.214Z,96237.60
2023-12-07T03:30:54.006Z,96237.00
2023-12-07T03:33:22.435Z,96238.80
2023-12-07T03:35:50.587Z,96235.20
2023-12-07T03:38:18.753Z,96233.40
2023-12-07T03:40:49.331Z,96234.80
2023-12-07T03:43:20.932Z,96239.40
2023-12-07T03:45:48.969Z,96246.20
2023-12-07T03:48:17.375Z,96242.00
2023-12-07T03:50:45.621Z,96245.80
2023-12-07T03:53:13.840Z,96253.20
2023-12-07T03:55:42.669Z,96251.20
2023-12-07T03:58:10.818Z,96257.40
2023-12-07T04:00:39.257Z,96257.80
2023-12-07T04:03:07.873Z,96261.20
2023-12-07T04:05:36.123Z,96262.80
2023-12-07T04:08:06.295Z,96265.00
2023-12-07T04:10:34.397Z,96261.00
2023-12-07T04:13:02.915Z,96263.40
2023-12-07T04:15:31.442Z,96255.20
2023-12-07T04:17:59.634Z,96263.20
2023-12-07T04:20:27.991Z,96261.60
2023-12-07T04:22:56.175Z,96263.00
2023-12-07T04:25:24.373Z,96261.60
2023-12-07T04:27:52.724Z,96260.80
2023-12-07T04:30:20.804Z,96262.60
2023-12-07T04:32:48.753Z,96265.40
2023-12-07T04:35:16.941Z,96262.80
2023-12-07T04:37:45.094Z,96261.80
2023-12-07T04:40:13.707Z,96265.80
2023-12-07T04:42:42.387Z,96263.40
2023-12-07T04:45:10.824Z,96268.40
2023-12-07T04:47:38.981Z,96268.80
2023-12-07T04:50:07.397Z,96271.80
2023-12-07T04:52:36.789Z,96273.60
2023-12-07T04:55:07.551Z,96275.20
2023-12-07T04:57:36.224Z,96279.20
2023-12-07T05:00:07.851Z,96284.00
2023-12-07T05:02:35.845Z,96281.80
2023-12-07T05:05:04.566Z,96284.20
2023-12-07T05:07:32.992Z,96280.40
2023-12-07T05:10:01.303Z,96289.40
2023-12-07T05:12:29.491Z,96287.80
2023-12-07T05:14:57.629Z,96283.60
2023-12-07T05:17:25.743Z,96282.20
2023-12-07T05:19:53.913Z,96284.40
2023-12-07T05:22:23.300Z,96286.40
2023-12-07T05:24:51.743Z,96291.60
2023-12-07T05:27:19.968Z,96292.60
2023-12-07T05:29:47.954Z,96297.60
2023-12-07T05:32:16.012Z,96293.80
2023-12-07T05:34:44.078Z,96298.60
2023-12-07T05:37:12.179Z,96302.00
2023-12-07T05:39:40.246Z,96299.20
2023-12-07T05:42:08.304Z,96300.60
2023-12-07T05:44:36.380Z,96309.60
2023-12-07T05:47:05.270Z,96305.20
2023-12-07T05:49:33.660Z,96303.80
2023-12-07T05:52:01.897Z,96311.00
2023-12-07T05:54:30.042Z,96310.60
2023-12-07T05:56:58.187Z,96313.20
2023-12-07T05:59:26.346Z,96313.60
2023-12-07T06:01:55.009Z,96314.80
2023-12-07T06:04:23.221Z,96321.80
2023-12-07T06:06:51.163Z,96321.80
2023-12-07T06:09:19.379Z,96326.00
2023-12-07T06:11:47.466Z,96324.40
2023-12-07T06:14:15.705Z,96325.60
2023-12-07T06:16:43.793Z,96331.60
2023-12-07T06:19:12.065Z,96331.20
2023-12-07T06:21:40.393Z,96334.60
2023-12-07T06:24:08.595Z,96336.20
2023-12-07T06:26:37.198Z,96338.20
2023-12-07T06:29:05.313Z,96337.40
2023-12-07T06:31:33.502Z,96339.00
2023-12-07T06:34:02.371Z,96341.00
2023-12-07T06:36:30.734Z,96341.00
2023-12-07T06:38:59.445Z,96342.40
2023-12-07T06:41:27.564Z,96346.40
2023-12-07T06:43:57.038Z,96341.80
2023-12-07T06:46:25.441Z,96344.40
2023-12-07T06:48:53.601Z,96344.60
2023-12-07T06:51:22.192Z,96355.00
2023-12-07T06:53:50.804Z,96355.40
2023-12-07T06:56:19.135Z,96353.80
2023-12-07T06:58:47.366Z,96357.20
2023-12-07T07:01:15.555Z,96354.80
2023-12-07T07:03:43.819Z,96359.40
2023-12-07T07:06:12.058Z,96361.80
2023-12-07T07:08:40.037Z,96358.40
2023-12-07T07:11:16.710Z,96356.20
2023-12-07T07:13:45.325Z,96362.00
2023-12-07T07:16:13.574Z,96361.60
2023-12-07T07:18:41.713Z,96363.00
2023-12-07T07:21:10.373Z,96362.40
2023-12-07T07:23:39.022Z,96366.00
2023-12-07T07:26:07.099Z,96366.60
2023-12-07T07:28:35.978Z,96372.80
2023-12-07T07:31:04.345Z,96376.00
2023-12-07T07:33:33.213Z,96377.20
2023-12-07T07:36:01.998Z,96378.40
2023-12-07T07:38:30.264Z,96382.80
2023-12-07T07:40:58.870Z,96382.40
2023-12-07T07:43:27.062Z,96391.20
2023-12-07T07:45:55.126Z,96385.60
2023-12-07T07:48:23.552Z,96388.00
2023-12-07T07:50:51.698Z,96384.60
2023-12-07T07:53:19.875Z,96389.60
2023-12-07T07:55:47.989Z,96392.20
2023-12-07T07:58:19.292Z,96398.00
2023-12-07T08:00:47.912Z,96399.80
2023-12-07T08:03:15.943Z,96401.00
2023-12-07T08:05:44.063Z,96405.80
2023-12-07T08:08:14.992Z,96407.40
2023-12-07T08:10:54.124Z,96408.80
2023-12-07T08:13:28.771Z,96411.40
2023-12-07T08:15:58.831Z,96408.00
2023-12-07T08:18:28.060Z,96406.60
2023-12-07T08:20:56.384Z,96409.40
2023-12-07T08:23:24.403Z,96405.00
2023-12-07T08:25:52.667Z,96408.40
2023-12-07T08:28:21.114Z,96406.20
2023-12-07T08:30:49.344Z,96405.80
2023-12-07T08:33:17.480Z,96407.60
2023-12-07T08:35:45.702Z,96412.00
2023-12-07T08:38:14.225Z,96410.40
2023-12-07T08:40:43.432Z,96410.20
2023-12-07T08:43:11.757Z,96407.80
2023-12-07T08:45:40.363Z,96408.80
2023-12-07T08:48:08.634Z,96412.00
2023-12-07T08:50:36.883Z,96409.60
2023-12-07T08:53:05.726Z,96412.80
2023-12-07T08:55:34.130Z,96414.60
2023-12-07T08:58:04.525Z,96413.00
2023-12-07T09:00:35.448Z,96412.20
2023-12-07T09:03:03.622Z,96417.80
2023-12-07T09:05:32.393Z,96419.40
2023-12-07T09:08:00.975Z,96422.40
2023-12-07T09:10:29.496Z,96413.60
2023-12-07T09:12:57.778Z,96409.40
2023-12-07T09:15:25.860Z,96412.20
2023-12-07T09:17:54.063Z,96413.20
2023-12-07T09:20:22.329Z,96414.80
2023-12-07T09:22:50.599Z,96417.60
2023-12-07T09:25:19.217Z,96414.40
2023-12-07T09:27:49.097Z,96410.00
2023-12-07T09:30:17.834Z,96413.20
2023-12-07T09:32:46.828Z,96411.20
2023-12-07T09:35:16.470Z,96410.80
2023-12-07T09:37:45.598Z,96412.00
2023-12-07T09:40:24.007Z,96407.80
2023-12-07T09:42:52.994Z,96408.80
2023-12-07T09:45:21.945Z,96410.80
2023-12-07T09:47:51.863Z,96416.20
2023-12-07T09:50:24.319Z,96413.60
2023-12-07T09:53:03.835Z,96413.00
2023-12-07T09:55:37.387Z,96411.20
2023-12-07T09:58:08.309Z,96410.40
2023-12-07T10:00:38.292Z,96410.60
2023-12-07T10:03:09.623Z,96409.00
2023-12-07T10:05:58.052Z,96403.00
2023-12-07T10:08:28.744Z,96398.20
2023-12-07T10:11:07.592Z,96395.00
2023-12-07T10:13:36.783Z,96399.80
2023-12-07T10:16:16.309Z,96400.60
2023-12-07T10:18:45.451Z,96399.60
2023-12-07T10:21:14.852Z,96402.20
2023-12-07T10:23:49.428Z,96399.40
2023-12-07T10:26:21.258Z,96403.80
2023-12-07T10:28:55.104Z,96403.00
2023-12-07T10:31:24.689Z,96406.00
2023-12-07T10:33:53.267Z,96415.60
2023-12-07T10:36:22.113Z,96415.00
2023-12-07T10:38:52.647Z,96413.20
2023-12-07T10:41:22.084Z,96398.80
2023-12-07T10:43:58.404Z,96406.60
2023-12-07T10:46:27.827Z,96403.80
2023-12-07T10:48:57.617Z,96401.00
2023-12-07T10:51:53.127Z,96401.80
2023-12-07T10:54:23.419Z,96399.80
2023-12-07T10:56:51.645Z,96393.20
2023-12-07T10:59:27.270Z,96393.00
2023-12-07T11:01:59.366Z,96395.40
2023-12-07T11:04:28.377Z,96387.20
2023-12-07T11:06:59.604Z,96389.40
2023-12-07T11:09:30.236Z,96388.00
2023-12-07T11:12:07.196Z,96388.20
2023-12-07T11:14:35.231Z,96395.40
2023-12-07T11:17:05.526Z,96388.20
2023-12-07T11:19:34.655Z,96389.40
2023-12-07T11:22:04.506Z,96384.80
2023-12-07T11:24:32.779Z,96391.20
2023-12-07T11:27:00.803Z,96390.20
2023-12-07T11:29:33.037Z,96396.80
2023-12-07T11:32:16.718Z,96401.40
2023-12-07T11:34:47.998Z,96399.80
2023-12-07T11:37:20.039Z,96400.60
2023-12-07T11:39:48.536Z,96406.80
2023-12-07T11:42:17.952Z,96407.20
2023-12-07T11:44:50.273Z,96401.20
2023-12-07T11:47:19.651Z,96400.40
2023-12-07T11:49:48.405Z,96397.20
2023-12-07T11:52:20.912Z,96399.60
2023-12-07T11:54:50.002Z,96401.00
2023-12-07T11:57:18.773Z,96405.00
2023-12-07T11:59:49.209Z,96407.60
2023-12-07T12:02:18.478Z,96399.80
2023-12-07T12:04:46.645Z,96403.80
2023-12-07T12:07:15.034Z,96402.20
2023-12-07T12:09:43.142Z,96400.80
2023-12-07T12:12:11.302Z,96397.80
2023-12-07T12:14:39.462Z,96397.60
2023-12-07T12:17:08.131Z,96398.80
2023-12-07T12:19:38.040Z,96398.00
2023-12-07T12:22:08.612Z,96398.20
2023-12-07T12:24:37.343Z,96400.80
2023-12-07T12:27:05.950Z,96404.40
2023-12-07T12:29:35.770Z,96401.40
2023-12-07T12:32:05.530Z,96405.80
2023-12-07T12:34:35.591Z,96407.60
2023-12-07T12:37:08.249Z,96407.40
2023-12-07T12:39:36.734Z,96404.40
2023-12-07T12:42:06.131Z,96406.20
2023-12-07T12:44:37.448Z,96407.00
2023-12-07T12:47:10.832Z,96401.40
2023-12-07T12:49:45.366Z,96401.20
2023-12-07T12:52:17.792Z,96404.20
2023-12-07T12:54:46.729Z,96407.00
2023-12-07T12:57:15.548Z,96409.00
2023-12-07T12:59:44.160Z,96411.60
2023-12-07T13:02:12.234Z,96416.00
2023-12-07T13:04:42.601Z,96420.40
2023-12-07T13:07:11.460Z,96419.60
2023-12-07T13:09:40.588Z,96423.60
2023-12-07T13:12:09.080Z,96421.60
2023-12-07T13:14:39.589Z,96418.20
2023-12-07T13:17:11.272Z,96422.60
2023-12-07T13:19:39.549Z,96425.80
2023-12-07T13:22:07.929Z,96429.40
2023-12-07T13:24:36.809Z,96425.80
2023-12-07T13:27:05.374Z,96428.20
2023-12-07T13:29:36.564Z,96430.80
2023-12-07T13:32:06.281Z,96426.80
2023-12-07T13:34:35.350Z,96426.80
2023-12-07T13:37:04.303Z,96425.60
2023-12-07T13:39:33.239Z,96429.00
2023-12-07T13:42:04.123Z,96423.00
2023-12-07T13:44:34.350Z,96430.00
2023-12-07T13:47:03.214Z,96429.80
2023-12-07T13:49:33.763Z,96434.20
2023-12-07T13:52:08.174Z,96431.40
2023-12-07T13:57:09.319Z,96425.00
2023-12-07T13:59:38.938Z,96429.00
2023-12-07T14:02:07.189Z,96431.60
2023-12-07T14:04:35.704Z,96430.20
2023-12-07T14:07:14.218Z,96434.80
2023-12-07T14:09:53.357Z,96437.40
2023-12-07T14:12:27.312Z,96439.60
2023-12-07T14:14:58.681Z,96433.60
2023-12-07T14:17:34.836Z,96440.20
2023-12-07T14:20:16.434Z,96440.20
2023-12-07T14:22:57.577Z,96447.20
2023-12-07T14:25:26.017Z,96449.20
2023-12-07T14:27:54.247Z,96447.20
2023-12-07T14:30:23.576Z,96449.20
2023-12-07T14:32:54.837Z,96447.60
2023-12-07T14:35:23.582Z,96449.60
2023-12-07T14:37:51.969Z,96449.60
2023-12-07T14:40:20.344Z,96456.00
2023-12-07T14:42:48.759Z,96458.40
2023-12-07T14:45:17.381Z,96463.60
2023-12-07T14:47:47.475Z,96464.60
2023-12-07T14:50:16.247Z,96460.80
2023-12-07T14:52:44.589Z,96458.80
2023-12-07T14:55:12.603Z,96456.60
2023-12-07T14:57:40.691Z,96458.20
2023-12-07T15:00:09.983Z,96461.00
2023-12-07T15:02:38.346Z,96463.00
2023-12-07T15:05:09.375Z,96467.20
2023-12-07T15:07:37.519Z,96464.60
2023-12-07T15:10:06.473Z,96467.80
2023-12-07T15:12:34.866Z,96469.40
2023-12-07T15:15:07.211Z,96470.40
2023-12-07T15:17:35.806Z,96472.80
2023-12-07T15:20:05.338Z,96475.20
2023-12-07T15:22:33.933Z,96479.40
2023-12-07T15:25:03.498Z,96477.00
2023-12-07T15:27:31.714Z,96477.60
2023-12-07T15:29:59.778Z,96480.00
2023-12-07T15:32:28.649Z,96477.40
2023-12-07T15:35:00.063Z,96476.60
2023-12-07T15:37:28.682Z,96477.00
2023-12-07T15:39:56.709Z,96486.80
2023-12-07T15:42:25.096Z,96488.60
2023-12-07T15:44:53.565Z,96488.00
2023-12-07T15:47:22.100Z,96488.60
2023-12-07T15:49:50.294Z,96491.20
2023-12-07T15:52:18.333Z,96487.40
2023-12-07T15:54:46.663Z,96489.40
2023-12-07T15:57:15.037Z,96498.60
2023-12-07T15:59:43.324Z,96497.00
2023-12-07T16:02:11.707Z,96491.60
2023-12-07T16:04:40.895Z,96496.60
2023-12-07T16:07:10.763Z,96499.20
2023-12-07T16:09:40.340Z,96497.60
2023-12-07T16:12:09.419Z,96502.80
2023-12-07T16:14:39.254Z,96505.80
2023-12-07T16:17:09.315Z,96501.40
2023-12-07T16:19:38.599Z,96503.40
2023-12-07T16:22:07.389Z,96501.40
2023-12-07T16:24:36.929Z,96499.80
2023-12-07T16:27:08.094Z,96498.00
2023-12-07T16:29:40.406Z,96500.20
2023-12-07T16:32:08.615Z,96507.60
2023-12-07T16:34:37.366Z,96510.00
2023-12-07T16:37:06.711Z,96510.80
2023-12-07T16:39:34.929Z,96521.20
2023-12-07T16:42:03.817Z,96518.60
2023-12-07T18:40:49.027Z,96570.60
2023-12-07T18:43:20.509Z,96571.00
2023-12-07T18:45:49.400Z,96570.60
2023-12-07T18:48:20.246Z,96575.00
2023-12-07T18:50:49.267Z,96578.20
2023-12-07T18:53:17.793Z,96579.00
2023-12-07T18:55:46.136Z,96580.20
2023-12-07T18:58:14.436Z,96584.00
2023-12-07T19:00:43.265Z,96582.40
2023-12-07T19:03:11.631Z,96582.20
2023-12-07T19:05:43.101Z,96584.40
2023-12-07T19:08:12.383Z,96583.80
2023-12-07T19:10:44.636Z,96589.40
2023-12-07T19:13:12.938Z,96587.60
2023-12-07T19:15:42.719Z,96583.00
2023-12-07T19:18:11.488Z,96581.80
2023-12-07T19:20:39.664Z,96586.40
2023-12-07T19:23:10.639Z,96584.00
2023-12-07T19:25:39.014Z,96587.60
2023-12-07T19:28:07.349Z,96585.00
2023-12-07T19:30:35.590Z,96581.60
2023-12-07T19:33:06.568Z,96586.60
2023-12-07T19:35:35.530Z,96588.40
2023-12-07T19:38:04.285Z,96591.80
2023-12-07T19:40:35.601Z,96591.60
2023-12-07T19:43:03.875Z,96595.60
2023-12-07T19:45:31.945Z,96595.20
2023-12-07T19:48:00.228Z,96603.80
2023-12-07T19:50:29.638Z,96599.60
2023-12-07T19:52:57.980Z,96597.80
2023-12-07T19:55:31.500Z,96600.40
2023-12-07T19:58:00.792Z,96605.20
2023-12-07T20:00:28.989Z,96601.40
2023-12-07T20:02:57.218Z,96604.40
2023-12-07T20:05:25.688Z,96602.80
2023-12-07T20:07:56.811Z,96604.80
2023-12-07T20:10:24.965Z,96605.40
2023-12-07T20:12:53.166Z,96608.20
2023-12-07T20:15:21.700Z,96605.60
2023-12-07T20:17:49.992Z,96608.60
2023-12-07T20:20:18.476Z,96613.20
2023-12-07T20:22:47.100Z,96613.60
2023-12-07T20:25:15.195Z,96614.80
2023-12-07T20:27:43.290Z,96614.60
2023-12-07T20:30:11.868Z,96614.60
2023-12-07T20:32:42.441Z,96613.20
2023-12-07T20:35:10.665Z,96617.40
2023-12-07T20:37:39.512Z,96609.60
2023-12-07T20:40:08.633Z,96604.20
2023-12-07T20:42:36.741Z,96615.80
2023-12-07T20:45:08.566Z,96619.00
2023-12-07T20:47:37.068Z,96606.80
2023-12-07T20:50:06.432Z,96603.00
2023-12-07T20:52:34.511Z,96598.60
2023-12-07T20:55:02.778Z,96602.60
2023-12-07T20:57:31.217Z,96609.60
2023-12-07T20:59:59.537Z,96606.20
2023-12-07T21:02:28.092Z,96602.60
2023-12-07T21:04:56.353Z,96601.20
2023-12-07T21:07:24.843Z,96608.80
2023-12-07T21:09:53.171Z,96609.20
2023-12-07T21:12:21.264Z,96614.20
2023-12-07T21:14:49.403Z,96612.20
2023-12-07T21:17:20.104Z,96606.40
2023-12-07T21:19:48.822Z,96610.60
2023-12-07T21:22:17.089Z,96610.20
2023-12-07T21:24:45.216Z,96614.60
2023-12-07T21:27:13.268Z,96613.20
2023-12-07T21:29:41.762Z,96609.80
2023-12-07T21:32:09.883Z,96605.80
2023-12-07T21:34:41.883Z,96605.80
2023-12-07T21:37:11.694Z,96609.00
2023-12-07T21:39:40.337Z,96611.00
2023-12-07T21:42:08.565Z,96614.80
2023-12-07T21:44:36.710Z,96609.80
2023-12-07T21:47:07.125Z,96610.80
2023-12-07T21:49:35.684Z,96611.60
2023-12-07T21:52:04.996Z,96608.60
2023-12-07T21:54:33.095Z,96607.80
2023-12-07T21:57:01.474Z,96607.60
2023-12-07T21:59:29.722Z,96610.00
2023-12-07T22:01:57.753Z,96609.40
2023-12-07T22:04:26.282Z,96607.20
2023-12-07T22:06:54.330Z,96606.40
2023-12-07T22:09:24.165Z,96608.40
2023-12-07T22:11:52.778Z,96614.60
2023-12-07T22:14:21.172Z,96611.80
2023-12-07T22:16:49.326Z,96615.20
2023-12-07T22:19:17.711Z,96622.20
2023-12-07T22:21:46.177Z,96621.60
2023-12-07T22:24:14.452Z,96618.60
2023-12-07T22:26:42.616Z,96619.20
2023-12-07T22:29:11.568Z,96617.00
2023-12-07T22:31:39.769Z,96611.80
2023-12-07T22:34:08.630Z,96613.00
2023-12-07T22:36:36.960Z,96611.00
2023-12-07T22:39:05.816Z,96604.40
2023-12-07T22:41:34.209Z,96602.60
2023-12-07T22:44:02.360Z,96604.40
2023-12-07T22:46:30.573Z,96602.00
2023-12-07T22:48:58.800Z,96606.80
2023-12-07T22:51:27.356Z,96610.80
2023-12-07T22:53:55.531Z,96609.60
2023-12-07T22:56:23.780Z,96611.20
2023-12-07T22:58:52.239Z,96614.60
2023-12-07T23:01:20.376Z,96613.80
2023-12-07T23:03:48.526Z,96614.00
2023-12-07T23:06:16.703Z,96615.20
2023-12-07T23:08:45.329Z,96614.60
2023-12-07T23:11:14.078Z,96614.20
2023-12-07T23:13:42.145Z,96615.80
2023-12-07T23:16:10.661Z,96618.60
2023-12-07T23:18:39.083Z,96617.60
2023-12-07T23:21:12.695Z,96619.00
2023-12-07T23:23:41.030Z,96614.20
2023-12-07T23:26:12.535Z,96610.60
2023-12-07T23:28:40.708Z,96611.80
2023-12-07T23:31:08.895Z,96607.40
2023-12-07T23:33:37.376Z,96603.60
2023-12-07T23:36:06.647Z,96603.20
2023-12-07T23:38:35.004Z,96602.20
2023-12-07T23:41:03.311Z,96606.00
2023-12-07T23:43:31.417Z,96602.40
2023-12-07T23:45:59.520Z,96602.60
2023-12-07T23:48:27.762Z,96607.20
2023-12-07T23:50:55.986Z,96608.80
2023-12-07T23:53:24.096Z,96609.40
2023-12-07T23:55:52.284Z,96609.80
2023-12-07T23:58:20.442Z,96610.80
